Time,TemperatureF,DewpointF,PressureIn,WindDirection,WindDirectionDegrees,WindSpeedMPH,WindSpeedGustMPH,Humidity,HourlyPrecipIn,Conditions,Clouds,dailyrainin,SoftwareType,DateUTC
2013-08-29 01:00:00,68.8,62.4,29.86,N/A,-737280,0.0,-999.0,80,0.00,,,0.00,Wunderground v.1.15,2013-08-29 08:00:00,
2013-08-29 01:05:00,68.8,62.4,29.86,N/A,-737280,0.0,-999.0,80,0.00,,,0.00,Wunderground v.1.15,2013-08-29 08:05:00,
2013-08-29 01:10:00,68.8,62.4,29.86,N/A,-737280,0.0,-999.0,80,0.00,,,0.00,Wunderground v.1.15,2013-08-29 08:10:00,
2013-08-29 01:15:00,68.7,61.9,29.86,WNW,293,0.0,-999.0,79,0.00,,,0.00,Wunderground v.1.15,2013-08-29 08:15:00,
2013-08-29 01:20:00,68.7,61.9,29.86,WNW,293,0.0,-999.0,79,0.00,,,0.00,Wunderground v.1.15,2013-08-29 08:20:00,
2013-08-29 01:25:00,68.6,61.8,29.86,WNW,293,0.0,-999.0,79,0.00,,,0.00,Wunderground v.1.15,2013-08-29 08:25:00,
2013-08-29 01:30:00,68.6,61.8,29.86,WNW,293,0.0,-999.0,79,0.00,,,0.00,Wunderground v.1.15,2013-08-29 08:30:00,
2013-08-29 01:35:00,68.4,62.0,29.86,N/A,-737280,0.0,-999.0,80,0.00,,,0.00,Wunderground v.1.15,2013-08-29 08:35:00,
2013-08-29 01:40:00,68.4,62.0,29.86,N/A,-737280,0.0,-999.0,80,0.00,,,0.00,Wunderground v.1.15,2013-08-29 08:40:00,
2013-08-29 01:45:00,68.4,61.6,29.87,WNW,293,0.0,-999.0,79,0.00,,,0.00,Wunderground v.1.15,2013-08-29 08:45:00,
2013-08-29 01:50:00,68.4,61.6,29.87,WNW,293,0.0,-999.0,79,0.00,,,0.00,Wunderground v.1.15,2013-08-29 08:50:00,
2013-08-29 01:55:00,68.6,62.2,29.87,N/A,-737280,0.0,-999.0,80,0.00,,,0.00,Wunderground v.1.15,2013-08-29 08:55:00,
2013-08-29 02:00:00,68.6,62.2,29.87,N/A,-737280,0.0,-999.0,80,0.00,,,0.00,Wunderground v.1.15,2013-08-29 09:00:00,
2013-08-29 02:05:00,68.6,62.2,29.86,N/A,-737280,0.0,-999.0,80,0.00,,,0.00,Wunderground v.1.15,2013-08-29 09:05:00,
2013-08-29 02:10:00,68.6,62.2,29.86,N/A,-737280,0.0,-999.0,80,0.00,,,0.00,Wunderground v.1.15,2013-08-29 09:10:00,
2013-08-29 02:15:00,68.5,62.1,29.87,N/A,-737280,0.0,-999.0,80,0.00,,,0.00,Wunderground v.1.15,2013-08-29 09:15:00,
2013-08-29 02:20:00,68.5,62.1,29.87,N/A,-737280,0.0,-999.0,80,0.00,,,0.00,Wunderground v.1.15,2013-08-29 09:20:00,
2013-08-29 02:25:00,68.1,62.0,29.86,N/A,-737280,0.0,-999.0,81,0.00,,,0.00,Wunderground v.1.15,2013-08-29 09:25:00,
2013-08-29 02:30:00,68.1,62.0,29.86,N/A,-737280,0.0,-999.0,81,0.00,,,0.00,Wunderground v.1.15,2013-08-29 09:30:00,
2013-08-29 02:35:00,67.8,61.8,29.86,N/A,-737280,0.0,-999.0,81,0.00,,,0.00,Wunderground v.1.15,2013-08-29 09:35:00,
2013-08-29 02:40:00,67.8,61.8,29.86,N/A,-737280,0.0,-999.0,81,0.00,,,0.00,Wunderground v.1.15,2013-08-29 09:40:00,
2013-08-29 02:45:00,67.5,61.8,29.86,WNW,293,0.0,-999.0,82,0.00,,,0.00,Wunderground v.1.15,2013-08-29 09:45:00,
2013-08-29 02:50:00,67.5,61.8,29.86,WNW,293,0.0,-999.0,82,0.00,,,0.00,Wunderground v.1.15,2013-08-29 09:50:00,
2013-08-29 02:55:00,67.6,62.3,29.86,WNW,293,0.0,-999.0,83,0.00,,,0.00,Wunderground v.1.15,2013-08-29 09:55:00,
2013-08-29 03:00:00,67.6,62.3,29.86,WNW,293,0.0,-999.0,83,0.00,,,0.00,Wunderground v.1.15,2013-08-29 10:00:00,
2013-08-29 03:05:00,67.6,62.3,29.86,N/A,-737280,0.0,-999.0,83,0.00,,,0.00,Wunderground v.1.15,2013-08-29 10:05:00,
2013-08-29 03:10:00,67.6,62.3,29.86,N/A,-737280,0.0,-999.0,83,0.00,,,0.00,Wunderground v.1.15,2013-08-29 10:10:00,
2013-08-29 03:15:00,67.4,62.1,29.86,N/A,-737280,0.0,-999.0,83,0.00,,,0.00,Wunderground v.1.15,2013-08-29 10:15:00,
2013-08-29 03:20:00,67.4,62.1,29.86,N/A,-737280,0.0,-999.0,83,0.00,,,0.00,Wunderground v.1.15,2013-08-29 10:20:00,
2013-08-29 03:25:00,67.1,62.1,29.85,N/A,-737280,0.0,-999.0,84,0.00,,,0.00,Wunderground v.1.15,2013-08-29 10:25:00,
2013-08-29 03:30:00,67.1,62.1,29.85,N/A,-737280,0.0,-999.0,84,0.00,,,0.00,Wunderground v.1.15,2013-08-29 10:30:00,
2013-08-29 03:35:00,66.9,61.9,29.86,N/A,-737280,0.0,-999.0,84,0.00,,,0.00,Wunderground v.1.15,2013-08-29 10:35:00,
2013-08-29 03:40:00,66.9,61.9,29.86,N/A,-737280,0.0,-999.0,84,0.00,,,0.00,Wunderground v.1.15,2013-08-29 10:40:00,
2013-08-29 03:45:00,66.7,61.7,29.86,N/A,-737280,0.0,-999.0,84,0.00,,,0.00,Wunderground v.1.15,2013-08-29 10:45:00,
2013-08-29 03:50:00,66.7,61.7,29.86,N/A,-737280,0.0,-999.0,84,0.00,,,0.00,Wunderground v.1.15,2013-08-29 10:50:00,
2013-08-29 03:55:00,66.7,61.7,29.86,N/A,-737280,0.0,-999.0,84,0.00,,,0.00,Wunderground v.1.15,2013-08-29 10:55:00,
2013-08-29 04:00:00,66.7,61.7,29.86,N/A,-737280,0.0,-999.0,84,0.00,,,0.00,Wunderground v.1.15,2013-08-29 11:00:00,
2013-08-29 04:05:00,66.6,61.6,29.86,N/A,-737280,0.0,-999.0,84,0.00,,,0.00,Wunderground v.1.15,2013-08-29 11:05:00,
2013-08-29 04:10:00,66.6,61.6,29.86,N/A,-737280,0.0,-999.0,84,0.00,,,0.00,Wunderground v.1.15,2013-08-29 11:10:00,
2013-08-29 04:15:00,66.5,61.8,29.86,N/A,-737280,0.0,-999.0,85,0.00,,,0.00,Wunderground v.1.15,2013-08-29 11:15:00,
2013-08-29 04:20:00,66.5,61.8,29.86,N/A,-737280,0.0,-999.0,85,0.00,,,0.00,Wunderground v.1.15,2013-08-29 11:20:00,
2013-08-29 04:25:00,66.4,61.8,29.86,N/A,-737280,0.0,-999.0,85,0.00,,,0.00,Wunderground v.1.15,2013-08-29 11:25:00,
2013-08-29 04:30:00,66.4,61.8,29.86,N/A,-737280,0.0,-999.0,85,0.00,,,0.00,Wunderground v.1.15,2013-08-29 11:30:00,
2013-08-29 04:35:00,66.3,61.7,29.86,N/A,-737280,0.0,-999.0,85,0.00,,,0.00,Wunderground v.1.15,2013-08-29 11:35:00,
2013-08-29 04:40:00,66.3,61.7,29.86,N/A,-737280,0.0,-999.0,85,0.00,,,0.00,Wunderground v.1.15,2013-08-29 11:40:00,
2013-08-29 04:45:00,66.4,61.8,29.86,N/A,-737280,0.0,-999.0,85,0.00,,,0.00,Wunderground v.1.15,2013-08-29 11:45:00,
2013-08-29 04:50:00,66.4,61.8,29.86,N/A,-737280,0.0,-999.0,85,0.00,,,0.00,Wunderground v.1.15,2013-08-29 11:50:00,
2013-08-29 04:55:00,66.3,61.7,29.86,N/A,-737280,0.0,-999.0,85,0.00,,,0.00,Wunderground v.1.15,2013-08-29 11:55:00,
2013-08-29 05:00:00,66.3,61.7,29.86,N/A,-737280,0.0,-999.0,85,0.00,,,0.00,Wunderground v.1.15,2013-08-29 12:00:00,
2013-08-29 05:05:00,66.4,61.8,29.87,WNW,293,0.0,-999.0,85,0.00,,,0.00,Wunderground v.1.15,2013-08-29 12:05:00,
2013-08-29 05:10:00,66.4,61.8,29.87,WNW,293,0.0,-999.0,85,0.00,,,0.00,Wunderground v.1.15,2013-08-29 12:10:00,
2013-08-29 05:15:00,66.7,62.0,29.87,N/A,-737280,0.0,-999.0,85,0.00,,,0.00,Wunderground v.1.15,2013-08-29 12:15:00,
2013-08-29 05:20:00,66.7,62.0,29.87,N/A,-737280,0.0,-999.0,85,0.00,,,0.00,Wunderground v.1.15,2013-08-29 12:20:00,
2013-08-29 05:25:00,66.5,61.8,29.87,N/A,-737280,0.0,-999.0,85,0.00,,,0.00,Wunderground v.1.15,2013-08-29 12:25:00,
2013-08-29 05:30:00,66.5,61.8,29.87,N/A,-737280,0.0,-999.0,85,0.00,,,0.00,Wunderground v.1.15,2013-08-29 12:30:00,
2013-08-29 05:35:00,66.2,61.6,29.87,N/A,-737280,0.0,-999.0,85,0.00,,,0.00,Wunderground v.1.15,2013-08-29 12:35:00,
2013-08-29 05:40:00,66.2,61.6,29.87,N/A,-737280,0.0,-999.0,85,0.00,,,0.00,Wunderground v.1.15,2013-08-29 12:40:00,
2013-08-29 05:45:00,66.0,61.4,29.87,WNW,293,0.0,-999.0,85,0.00,,,0.00,Wunderground v.1.15,2013-08-29 12:45:00,
2013-08-29 05:50:00,66.0,61.4,29.87,WNW,293,0.0,-999.0,85,0.00,,,0.00,Wunderground v.1.15,2013-08-29 12:50:00,
2013-08-29 05:55:00,65.9,61.3,29.87,N/A,-737280,0.0,-999.0,85,0.00,,,0.00,Wunderground v.1.15,2013-08-29 12:55:00,
2013-08-29 06:00:00,65.9,61.3,29.87,N/A,-737280,0.0,-999.0,85,0.00,,,0.00,Wunderground v.1.15,2013-08-29 13:00:00,
2013-08-29 06:05:00,65.9,61.6,29.88,N/A,-737280,0.0,-999.0,86,0.00,,,0.00,Wunderground v.1.15,2013-08-29 13:05:00,
2013-08-29 06:10:00,65.9,61.6,29.88,N/A,-737280,0.0,-999.0,86,0.00,,,0.00,Wunderground v.1.15,2013-08-29 13:10:00,
2013-08-29 06:15:00,65.9,61.6,29.88,N/A,-737280,0.0,-999.0,86,0.00,,,0.00,Wunderground v.1.15,2013-08-29 13:15:00,
2013-08-29 06:20:00,65.9,61.6,29.88,N/A,-737280,0.0,-999.0,86,0.00,,,0.00,Wunderground v.1.15,2013-08-29 13:20:00,
2013-08-29 06:25:00,65.8,61.5,29.88,N/A,-737280,0.0,-999.0,86,0.00,,,0.00,Wunderground v.1.15,2013-08-29 13:25:00,
2013-08-29 06:30:00,65.8,61.5,29.88,N/A,-737280,0.0,-999.0,86,0.00,,,0.00,Wunderground v.1.15,2013-08-29 13:30:00,
2013-08-29 06:35:00,65.8,61.5,29.88,WNW,293,0.0,-999.0,86,0.00,,,0.00,Wunderground v.1.15,2013-08-29 13:35:00,
2013-08-29 06:40:00,65.8,61.5,29.88,WNW,293,0.0,-999.0,86,0.00,,,0.00,Wunderground v.1.15,2013-08-29 13:40:00,
2013-08-29 06:45:00,65.9,61.9,29.89,WNW,293,0.0,-999.0,87,0.00,,,0.00,Wunderground v.1.15,2013-08-29 13:45:00,
2013-08-29 06:50:00,65.9,61.9,29.89,WNW,293,0.0,-999.0,87,0.00,,,0.00,Wunderground v.1.15,2013-08-29 13:50:00,
2013-08-29 06:55:00,66.3,62.3,29.90,WNW,293,0.0,-999.0,87,0.00,,,0.00,Wunderground v.1.15,2013-08-29 13:55:00,
2013-08-29 07:00:00,66.3,62.3,29.90,WNW,293,0.0,-999.0,87,0.00,,,0.00,Wunderground v.1.15,2013-08-29 14:00:00,
2013-08-29 07:05:00,66.7,62.4,29.89,North,0,0.0,-999.0,86,0.00,,,0.00,Wunderground v.1.15,2013-08-29 14:05:00,
2013-08-29 07:10:00,66.7,62.4,29.89,North,0,0.0,-999.0,86,0.00,,,0.00,Wunderground v.1.15,2013-08-29 14:10:00,
2013-08-29 07:15:00,67.1,62.8,29.88,ESE,113,0.0,-999.0,86,0.00,,,0.00,Wunderground v.1.15,2013-08-29 14:15:00,
2013-08-29 07:20:00,67.1,62.8,29.88,ESE,113,0.0,-999.0,86,0.00,,,0.00,Wunderground v.1.15,2013-08-29 14:20:00,
2013-08-29 07:25:00,68.0,63.3,29.89,ESE,113,0.0,-999.0,85,0.00,,,0.00,Wunderground v.1.15,2013-08-29 14:25:00,
2013-08-29 07:30:00,68.0,63.3,29.89,ESE,113,0.0,-999.0,85,0.00,,,0.00,Wunderground v.1.15,2013-08-29 14:30:00,
2013-08-29 07:35:00,69.2,63.8,29.89,ESE,113,0.0,-999.0,83,0.00,,,0.00,Wunderground v.1.15,2013-08-29 14:35:00,
2013-08-29 07:40:00,69.2,63.8,29.89,ESE,113,0.0,-999.0,83,0.00,,,0.00,Wunderground v.1.15,2013-08-29 14:40:00,
2013-08-29 07:45:00,70.4,64.3,29.89,WNW,293,0.0,-999.0,81,0.00,,,0.00,Wunderground v.1.15,2013-08-29 14:45:00,
2013-08-29 07:50:00,70.4,64.3,29.89,WNW,293,0.0,-999.0,81,0.00,,,0.00,Wunderground v.1.15,2013-08-29 14:50:00,
2013-08-29 07:55:00,71.3,64.4,29.89,WNW,293,1.0,-999.0,79,0.00,,,0.00,Wunderground v.1.15,2013-08-29 14:55:00,
2013-08-29 08:00:00,71.3,64.4,29.89,WNW,293,1.0,-999.0,79,0.00,,,0.00,Wunderground v.1.15,2013-08-29 15:00:00,
2013-08-29 08:05:00,72.5,64.5,29.89,WNW,293,1.0,-999.0,76,0.00,,,0.00,Wunderground v.1.15,2013-08-29 15:05:00,
2013-08-29 08:10:00,72.5,64.5,29.89,WNW,293,1.0,-999.0,76,0.00,,,0.00,Wunderground v.1.15,2013-08-29 15:10:00,
2013-08-29 08:15:00,73.4,64.6,29.89,NW,315,2.0,-999.0,74,0.00,,,0.00,Wunderground v.1.15,2013-08-29 15:15:00,
2013-08-29 08:20:00,73.4,64.6,29.89,NW,315,2.0,-999.0,74,0.00,,,0.00,Wunderground v.1.15,2013-08-29 15:20:00,
2013-08-29 08:25:00,74.5,64.5,29.89,WNW,293,1.0,-999.0,71,0.00,,,0.00,Wunderground v.1.15,2013-08-29 15:25:00,
2013-08-29 08:30:00,74.5,64.5,29.89,WNW,293,1.0,-999.0,71,0.00,,,0.00,Wunderground v.1.15,2013-08-29 15:30:00,
2013-08-29 08:35:00,76.1,64.8,29.90,WNW,293,0.0,-999.0,68,0.00,,,0.00,Wunderground v.1.15,2013-08-29 15:35:00,
2013-08-29 08:40:00,76.1,64.8,29.90,WNW,293,0.0,-999.0,68,0.00,,,0.00,Wunderground v.1.15,2013-08-29 15:40:00,
2013-08-29 08:45:00,77.4,64.7,29.90,WNW,293,0.0,-999.0,65,0.00,,,0.00,Wunderground v.1.15,2013-08-29 15:45:00,
2013-08-29 08:50:00,77.4,64.7,29.90,WNW,293,0.0,-999.0,65,0.00,,,0.00,Wunderground v.1.15,2013-08-29 15:50:00,
2013-08-29 08:55:00,79.3,65.6,29.90,WNW,293,0.0,-999.0,63,0.00,,,0.00,Wunderground v.1.15,2013-08-29 15:55:00,
2013-08-29 08:56:00,78.5,65.3,29.90,WNW,302,0.0,0.0,64,0.00,,,0.00,Wunderground v.1.15,2013-08-29 15:56:00,
2013-08-29 09:00:00,79.3,65.6,29.90,WNW,293,0.0,-999.0,63,0.00,,,0.00,Wunderground v.1.15,2013-08-29 16:00:00,
2013-08-29 09:05:00,79.9,64.8,29.90,WNW,302,0.0,1.0,60,0.00,,,0.00,Wunderground v.1.15,2013-08-29 16:05:00,
2013-08-29 09:10:00,80.3,64.7,29.90,WNW,302,0.0,0.0,59,0.00,,,0.00,Wunderground v.1.15,2013-08-29 16:10:00,
2013-08-29 09:15:00,80.7,63.5,29.90,WNW,293,0.0,-999.0,56,0.00,,,0.00,Wunderground v.1.15,2013-08-29 16:15:00,
2013-08-29 09:16:00,80.5,64.9,29.90,WNW,302,0.0,0.0,59,0.00,,,0.00,Wunderground v.1.15,2013-08-29 16:16:00,
2013-08-29 09:20:00,80.7,63.5,29.90,WNW,293,0.0,-999.0,56,0.00,,,0.00,Wunderground v.1.15,2013-08-29 16:20:00,
2013-08-29 09:25:00,81.0,64.3,29.90,WNW,302,0.0,0.0,57,0.00,,,0.00,Wunderground v.1.15,2013-08-29 16:25:00,
2013-08-29 09:30:00,81.1,63.9,29.90,WNW,302,1.0,1.0,56,0.00,,,0.00,Wunderground v.1.15,2013-08-29 16:30:00,
2013-08-29 09:35:00,81.6,64.4,29.90,WNW,302,1.0,1.0,56,0.00,,,0.00,Wunderground v.1.15,2013-08-29 16:35:00,
2013-08-29 09:40:00,82.1,63.8,29.90,WNW,302,0.0,0.0,54,0.00,,,0.00,Wunderground v.1.15,2013-08-29 16:40:00,
2013-08-29 09:45:00,82.6,63.7,29.90,NE,56,1.0,1.0,53,0.00,,,0.00,Wunderground v.1.15,2013-08-29 16:45:00,
2013-08-29 09:50:00,83.3,63.8,29.90,WNW,302,1.0,1.0,52,0.00,,,0.00,Wunderground v.1.15,2013-08-29 16:50:00,
2013-08-29 09:55:00,83.4,65.0,29.90,WNW,301,1.0,1.0,54,0.00,,,0.00,Wunderground v.1.15,2013-08-29 16:55:00,
2013-08-29 10:00:00,83.8,63.7,29.90,NW,306,1.0,4.0,51,0.00,,,0.00,Wunderground v.1.15,2013-08-29 17:00:00,
2013-08-29 10:05:00,84.1,63.5,29.89,West,281,2.0,5.0,50,0.00,,,0.00,Wunderground v.1.15,2013-08-29 17:05:00,
2013-08-29 10:10:00,84.4,63.7,29.89,North,355,3.0,3.0,50,0.00,,,0.00,Wunderground v.1.15,2013-08-29 17:10:00,
2013-08-29 10:15:00,85.0,62.5,29.89,WNW,293,3.0,-999.0,47,0.00,,,0.00,Wunderground v.1.15,2013-08-29 17:15:00,
2013-08-29 10:20:00,85.1,62.6,29.89,West,281,3.0,3.0,47,0.00,,,0.00,Wunderground v.1.15,2013-08-29 17:20:00,
2013-08-29 10:25:00,85.6,63.1,29.89,WNW,296,3.0,3.0,47,0.00,,,0.00,Wunderground v.1.15,2013-08-29 17:25:00,
2013-08-29 10:30:00,86.4,61.9,29.89,NW,308,2.0,3.0,44,0.00,,,0.00,Wunderground v.1.15,2013-08-29 17:30:00,
2013-08-29 10:35:00,87.2,62.6,29.89,NW,315,1.0,3.0,44,0.00,,,0.00,Wunderground v.1.15,2013-08-29 17:35:00,
2013-08-29 10:40:00,87.9,62.6,29.89,NW,314,2.0,4.0,43,0.00,,,0.00,Wunderground v.1.15,2013-08-29 17:40:00,
2013-08-29 10:45:00,88.2,62.2,29.89,WNW,292,2.0,4.0,42,0.00,,,0.00,Wunderground v.1.15,2013-08-29 17:45:00,
2013-08-29 10:50:00,88.5,62.5,29.89,WNW,293,2.0,-999.0,42,0.00,,,0.00,Wunderground v.1.15,2013-08-29 17:50:00,
2013-08-29 10:55:00,89.0,62.9,29.89,SSE,157,2.0,4.0,42,0.00,,,0.00,Wunderground v.1.15,2013-08-29 17:55:00,
2013-08-29 11:00:00,89.5,67.8,29.89,SSW,192,2.0,5.0,49,0.00,,,0.00,Wunderground v.1.15,2013-08-29 18:00:00,
2013-08-29 11:05:00,88.3,67.9,29.89,SSW,202,4.0,5.0,51,0.00,,,0.00,Wunderground v.1.15,2013-08-29 18:05:00,
2013-08-29 11:10:00,87.5,67.1,29.89,SW,223,4.0,4.0,51,0.00,,,0.00,Wunderground v.1.15,2013-08-29 18:10:00,
2013-08-29 11:15:00,86.1,67.5,29.89,SSW,203,4.0,-999.0,54,0.00,,,0.00,Wunderground v.1.15,2013-08-29 18:15:00,
2013-08-29 11:20:00,86.1,67.0,29.89,SW,215,5.0,5.0,53,0.00,,,0.00,Wunderground v.1.15,2013-08-29 18:20:00,
2013-08-29 11:25:00,86.0,66.9,29.89,WSW,237,4.0,5.0,53,0.00,,,0.00,Wunderground v.1.15,2013-08-29 18:25:00,
2013-08-29 11:30:00,86.1,67.0,29.89,SW,225,4.0,-999.0,53,0.00,,,0.00,Wunderground v.1.15,2013-08-29 18:30:00,
2013-08-29 11:35:00,85.9,65.7,29.88,SSW,209,4.0,5.0,51,0.00,,,0.00,Wunderground v.1.15,2013-08-29 18:35:00,
2013-08-29 11:40:00,85.7,65.5,29.88,SW,221,5.0,9.0,51,0.00,,,0.00,Wunderground v.1.15,2013-08-29 18:40:00,
2013-08-29 11:45:00,85.0,64.8,29.88,SW,229,5.0,9.0,51,0.00,,,0.00,Wunderground v.1.15,2013-08-29 18:45:00,
2013-08-29 11:50:00,84.9,64.8,29.88,SSW,192,5.0,5.0,51,0.00,,,0.00,Wunderground v.1.15,2013-08-29 18:50:00,
2013-08-29 11:55:00,85.0,65.4,29.88,SW,234,4.0,5.0,52,0.00,,,0.00,Wunderground v.1.15,2013-08-29 18:55:00,
2013-08-29 12:00:00,85.3,64.6,29.88,WSW,240,4.0,5.0,50,0.00,,,0.00,Wunderground v.1.15,2013-08-29 19:00:00,
2013-08-29 12:05:00,85.3,64.6,29.88,SW,229,5.0,7.0,50,0.00,,,0.00,Wunderground v.1.15,2013-08-29 19:05:00,
2013-08-29 12:10:00,85.7,64.3,29.88,SW,236,5.0,6.0,49,0.00,,,0.00,Wunderground v.1.15,2013-08-29 19:10:00,
2013-08-29 12:15:00,86.7,64.7,29.88,SW,225,5.0,-999.0,48,0.00,,,0.00,Wunderground v.1.15,2013-08-29 19:15:00,
2013-08-29 12:20:00,86.8,63.5,29.88,South,184,5.0,5.0,46,0.00,,,0.00,Wunderground v.1.15,2013-08-29 19:20:00,
2013-08-29 12:25:00,87.5,62.9,29.88,SW,219,4.0,5.0,44,0.00,,,0.00,Wunderground v.1.15,2013-08-29 19:25:00,
2013-08-29 12:30:00,87.9,62.6,29.88,SW,226,4.0,4.0,43,0.00,,,0.00,Wunderground v.1.15,2013-08-29 19:30:00,
2013-08-29 12:35:00,88.1,62.8,29.87,SSW,207,5.0,5.0,43,0.00,,,0.00,Wunderground v.1.15,2013-08-29 19:35:00,
2013-08-29 12:40:00,88.1,63.4,29.87,SW,232,5.0,7.0,44,0.00,,,0.00,Wunderground v.1.15,2013-08-29 19:40:00,
2013-08-29 12:45:00,88.3,63.0,29.87,SSW,202,4.0,7.0,43,0.00,,,0.00,Wunderground v.1.15,2013-08-29 19:45:00,
2013-08-29 12:50:00,88.2,64.2,29.87,SSW,196,5.0,10.0,45,0.00,,,0.00,Wunderground v.1.15,2013-08-29 19:50:00,
2013-08-29 12:55:00,88.5,63.8,29.87,SSW,209,5.0,10.0,44,0.00,,,0.00,Wunderground v.1.15,2013-08-29 19:55:00,
2013-08-29 13:00:00,88.7,63.3,29.86,SW,229,5.0,5.0,43,0.00,,,0.00,Wunderground v.1.15,2013-08-29 20:00:00,
2013-08-29 13:05:00,89.0,64.3,29.86,SW,232,5.0,6.0,44,0.00,,,0.00,Wunderground v.1.15,2013-08-29 20:05:00,
2013-08-29 13:10:00,89.2,64.4,29.86,SSW,200,5.0,5.0,44,0.00,,,0.00,Wunderground v.1.15,2013-08-29 20:10:00,
2013-08-29 13:15:00,90.1,64.6,29.86,SSW,203,4.0,-999.0,43,0.00,,,0.00,Wunderground v.1.15,2013-08-29 20:15:00,
2013-08-29 13:16:00,89.7,64.9,29.86,SSW,195,5.0,5.0,44,0.00,,,0.00,Wunderground v.1.15,2013-08-29 20:16:00,
2013-08-29 13:20:00,90.1,64.6,29.86,South,189,5.0,5.0,43,0.00,,,0.00,Wunderground v.1.15,2013-08-29 20:20:00,
2013-08-29 13:25:00,90.6,65.7,29.86,SSW,196,5.0,5.0,44,0.00,,,0.00,Wunderground v.1.15,2013-08-29 20:25:00,
2013-08-29 13:30:00,90.7,65.8,29.86,SSE,154,5.0,5.0,44,0.00,,,0.00,Wunderground v.1.15,2013-08-29 20:30:00,
2013-08-29 13:35:00,91.3,65.7,29.85,South,185,5.0,6.0,43,0.00,,,0.00,Wunderground v.1.15,2013-08-29 20:35:00,
2013-08-29 13:40:00,91.7,66.7,29.85,SW,228,5.0,5.0,44,0.00,,,0.00,Wunderground v.1.15,2013-08-29 20:40:00,
2013-08-29 13:45:00,92.0,66.3,29.85,SSW,196,4.0,5.0,43,0.00,,,0.00,Wunderground v.1.15,2013-08-29 20:45:00,
2013-08-29 13:50:00,93.2,66.0,29.85,SSW,195,3.0,3.0,41,0.00,,,0.00,Wunderground v.1.15,2013-08-29 20:50:00,
2013-08-29 13:55:00,93.8,64.3,29.85,SSW,203,4.0,-999.0,38,0.00,,,0.00,Wunderground v.1.15,2013-08-29 20:55:00,
2013-08-29 14:00:00,93.8,65.1,29.85,South,178,4.0,4.0,39,0.00,,,0.00,Wunderground v.1.15,2013-08-29 21:00:00,
2013-08-29 14:05:00,94.9,65.3,29.85,SSW,203,3.0,-999.0,38,0.00,,,0.00,Wunderground v.1.15,2013-08-29 21:05:00,
2013-08-29 14:10:00,94.9,65.3,29.85,South,185,3.0,3.0,38,0.00,,,0.00,Wunderground v.1.15,2013-08-29 21:10:00,
2013-08-29 14:15:00,95.3,64.9,29.85,SSW,195,4.0,6.0,37,0.00,,,0.00,Wunderground v.1.15,2013-08-29 21:15:00,
2013-08-29 14:20:00,95.1,64.7,29.85,SW,219,4.0,6.0,37,0.00,,,0.00,Wunderground v.1.15,2013-08-29 21:20:00,
2013-08-29 14:25:00,95.0,65.4,29.85,West,268,4.0,6.0,38,0.00,,,0.00,Wunderground v.1.15,2013-08-29 21:25:00,
2013-08-29 14:30:00,95.3,67.2,29.85,SW,225,4.0,-999.0,40,0.00,,,0.00,Wunderground v.1.15,2013-08-29 21:30:00,
2013-08-29 14:35:00,94.4,66.4,29.85,WNW,297,5.0,9.0,40,0.00,,,0.00,Wunderground v.1.15,2013-08-29 21:35:00,
2013-08-29 14:40:00,93.7,66.4,29.85,NW,313,6.0,8.0,41,0.00,,,0.00,Wunderground v.1.15,2013-08-29 21:40:00,
2013-08-29 14:45:00,93.6,66.4,29.85,WNW,294,6.0,8.0,41,0.00,,,0.00,Wunderground v.1.15,2013-08-29 21:45:00,
2013-08-29 14:50:00,93.7,65.7,29.85,WNW,285,5.0,5.0,40,0.00,,,0.00,Wunderground v.1.15,2013-08-29 21:50:00,
2013-08-29 14:55:00,93.4,65.5,29.85,WNW,290,5.0,9.0,40,0.00,,,0.00,Wunderground v.1.15,2013-08-29 21:55:00,
2013-08-29 15:00:00,93.4,65.5,29.84,WNW,297,5.0,6.0,40,0.00,,,0.00,Wunderground v.1.15,2013-08-29 22:00:00,
2013-08-29 15:05:00,93.5,64.8,29.85,NW,316,5.0,6.0,39,0.00,,,0.00,Wunderground v.1.15,2013-08-29 22:05:00,
2013-08-29 15:10:00,93.5,65.6,29.84,NW,306,5.0,5.0,40,0.00,,,0.00,Wunderground v.1.15,2013-08-29 22:10:00,
2013-08-29 15:15:00,93.5,64.8,29.84,WNW,292,5.0,5.0,39,0.00,,,0.00,Wunderground v.1.15,2013-08-29 22:15:00,
2013-08-29 15:20:00,93.5,64.8,29.84,WNW,295,5.0,5.0,39,0.00,,,0.00,Wunderground v.1.15,2013-08-29 22:20:00,
2013-08-29 15:25:00,93.7,64.3,29.84,WNW,288,4.0,6.0,38,0.00,,,0.00,Wunderground v.1.15,2013-08-29 22:25:00,
2013-08-29 15:30:00,93.8,64.3,29.84,WNW,293,4.0,7.0,38,0.00,,,0.00,Wunderground v.1.15,2013-08-29 22:30:00,
2013-08-29 15:35:00,94.0,64.5,29.84,NW,323,3.0,7.0,38,0.00,,,0.00,Wunderground v.1.15,2013-08-29 22:35:00,
2013-08-29 15:40:00,94.2,65.4,29.84,NW,311,3.0,3.0,39,0.00,,,0.00,Wunderground v.1.15,2013-08-29 22:40:00,
2013-08-29 15:45:00,94.4,64.1,29.85,West,274,4.0,4.0,37,0.00,,,0.00,Wunderground v.1.15,2013-08-29 22:45:00,
2013-08-29 15:50:00,94.2,64.7,29.85,NW,316,3.0,3.0,38,0.00,,,0.00,Wunderground v.1.15,2013-08-29 22:50:00,
2013-08-29 15:55:00,94.1,63.9,29.84,WNW,291,4.0,5.0,37,0.00,,,0.00,Wunderground v.1.15,2013-08-29 22:55:00,
2013-08-29 16:00:00,94.0,64.5,29.84,WNW,284,4.0,4.0,38,0.00,,,0.00,Wunderground v.1.15,2013-08-29 23:00:00,
2013-08-29 16:05:00,94.0,63.0,29.84,NW,313,3.0,4.0,36,0.00,,,0.00,Wunderground v.1.15,2013-08-29 23:05:00,
2013-08-29 16:10:00,93.8,62.8,29.84,NW,306,4.0,4.0,36,0.00,,,0.00,Wunderground v.1.15,2013-08-29 23:10:00,
2013-08-29 16:15:00,93.8,61.2,29.84,NW,315,4.0,-999.0,34,0.00,,,0.00,Wunderground v.1.15,2013-08-29 23:15:00,
2013-08-29 16:16:00,93.7,61.1,29.84,WNW,303,4.0,4.0,34,0.00,,,0.00,Wunderground v.1.15,2013-08-29 23:16:00,
2013-08-29 16:20:00,93.8,61.2,29.84,NW,315,4.0,-999.0,34,0.00,,,0.00,Wunderground v.1.15,2013-08-29 23:20:00,
2013-08-29 16:25:00,93.6,61.0,29.83,West,278,5.0,6.0,34,0.00,,,0.00,Wunderground v.1.15,2013-08-29 23:25:00,
2013-08-29 16:30:00,93.3,62.4,29.83,NW,319,5.0,5.0,36,0.00,,,0.00,Wunderground v.1.15,2013-08-29 23:30:00,
2013-08-29 16:35:00,92.4,61.6,29.84,WNW,293,6.0,-999.0,36,0.00,,,0.00,Wunderground v.1.15,2013-08-29 23:35:00,
2013-08-29 16:40:00,92.4,61.6,29.84,NW,314,6.0,6.0,36,0.00,,,0.00,Wunderground v.1.15,2013-08-29 23:40:00,
2013-08-29 16:45:00,92.1,61.3,29.84,NW,323,5.0,6.0,36,0.00,,,0.00,Wunderground v.1.15,2013-08-29 23:45:00,
2013-08-29 16:50:00,92.0,61.2,29.84,NW,313,4.0,4.0,36,0.00,,,0.00,Wunderground v.1.15,2013-08-29 23:50:00,
2013-08-29 16:55:00,91.7,61.7,29.84,WNW,294,3.0,7.0,37,0.00,,,0.00,Wunderground v.1.15,2013-08-29 23:55:00,
2013-08-29 17:00:00,91.6,62.4,29.84,WNW,285,3.0,5.0,38,0.00,,,0.00,Wunderground v.1.15,2013-08-30 00:00:00,
2013-08-29 17:05:00,91.6,60.9,29.84,NNW,331,4.0,6.0,36,0.00,,,0.00,Wunderground v.1.15,2013-08-30 00:05:00,
2013-08-29 17:10:00,91.7,61.0,29.84,NNW,333,4.0,4.0,36,0.00,,,0.00,Wunderground v.1.15,2013-08-30 00:10:00,
2013-08-29 17:15:00,90.5,59.9,29.85,WNW,293,5.0,-999.0,36,0.00,,,0.00,Wunderground v.1.15,2013-08-30 00:15:00,
2013-08-29 17:20:00,90.4,59.8,29.84,NW,309,5.0,5.0,36,0.00,,,0.00,Wunderground v.1.15,2013-08-30 00:20:00,
2013-08-29 17:25:00,89.5,59.0,29.84,WNW,293,5.0,-999.0,36,0.00,,,0.00,Wunderground v.1.15,2013-08-30 00:25:00,
2013-08-29 17:30:00,89.4,58.9,29.85,NNW,336,5.0,5.0,36,0.00,,,0.00,Wunderground v.1.15,2013-08-30 00:30:00,
2013-08-29 17:35:00,88.9,58.5,29.85,NW,315,4.0,-999.0,36,0.00,,,0.00,Wunderground v.1.15,2013-08-30 00:35:00,
2013-08-29 17:40:00,88.9,58.5,29.85,NW,305,4.0,4.0,36,0.00,,,0.00,Wunderground v.1.15,2013-08-30 00:40:00,
2013-08-29 17:45:00,88.4,58.8,29.85,WNW,286,4.0,6.0,37,0.00,,,0.00,Wunderground v.1.15,2013-08-30 00:45:00,
2013-08-29 17:50:00,88.0,58.5,29.85,NW,309,5.0,6.0,37,0.00,,,0.00,Wunderground v.1.15,2013-08-30 00:50:00,
2013-08-29 17:55:00,87.9,59.1,29.85,WNW,287,4.0,6.0,38,0.00,,,0.00,Wunderground v.1.15,2013-08-30 00:55:00,
2013-08-29 18:00:00,88.1,59.3,29.85,WNW,293,3.0,-999.0,38,0.00,,,0.00,Wunderground v.1.15,2013-08-30 01:00:00,
2013-08-29 18:05:00,88.0,59.9,29.85,WNW,301,3.0,6.0,39,0.00,,,0.00,Wunderground v.1.15,2013-08-30 01:05:00,
2013-08-29 18:10:00,87.6,60.3,29.85,NW,304,3.0,3.0,40,0.00,,,0.00,Wunderground v.1.15,2013-08-30 01:10:00,
2013-08-29 18:15:00,87.4,60.1,29.85,NW,315,3.0,-999.0,40,0.00,,,0.00,Wunderground v.1.15,2013-08-30 01:15:00,
2013-08-29 18:20:00,87.4,60.1,29.85,WNW,302,3.0,3.0,40,0.00,,,0.00,Wunderground v.1.15,2013-08-30 01:20:00,
2013-08-29 18:25:00,87.5,60.2,29.85,WNW,303,2.0,3.0,40,0.00,,,0.00,Wunderground v.1.15,2013-08-30 01:25:00,
2013-08-29 18:30:00,87.7,60.4,29.85,WNW,303,1.0,1.0,40,0.00,,,0.00,Wunderground v.1.15,2013-08-30 01:30:00,
2013-08-29 18:35:00,87.8,59.0,29.85,WNW,298,2.0,2.0,38,0.00,,,0.00,Wunderground v.1.15,2013-08-30 01:35:00,
2013-08-29 18:40:00,87.6,58.9,29.85,WNW,293,2.0,-999.0,38,0.00,,,0.00,Wunderground v.1.15,2013-08-30 01:40:00,
2013-08-29 18:45:00,87.1,57.7,29.85,WNW,292,3.0,6.0,37,0.00,,,0.00,Wunderground v.1.15,2013-08-30 01:45:00,
2013-08-29 18:50:00,86.7,58.1,29.85,WNW,300,4.0,4.0,38,0.00,,,0.00,Wunderground v.1.15,2013-08-30 01:50:00,
2013-08-29 18:55:00,85.8,56.5,29.85,WNW,293,4.0,-999.0,37,0.00,,,0.00,Wunderground v.1.15,2013-08-30 01:55:00,
2013-08-29 19:00:00,85.7,56.4,29.85,NW,306,4.0,4.0,37,0.00,,,0.00,Wunderground v.1.15,2013-08-30 02:00:00,
2013-08-29 19:05:00,85.3,56.1,29.85,WNW,292,4.0,6.0,37,0.00,,,0.00,Wunderground v.1.15,2013-08-30 02:05:00,
2013-08-29 19:10:00,85.0,56.5,29.86,West,274,4.0,4.0,38,0.00,,,0.00,Wunderground v.1.15,2013-08-30 02:10:00,
2013-08-29 19:15:00,84.5,58.9,29.86,West,270,2.0,-999.0,42,0.00,,,0.00,Wunderground v.1.15,2013-08-30 02:15:00,
2013-08-29 19:20:00,84.5,58.9,29.86,WNW,294,2.0,5.0,42,0.00,,,0.00,Wunderground v.1.15,2013-08-30 02:20:00,
2013-08-29 19:25:00,84.0,57.1,29.86,NW,311,2.0,2.0,40,0.00,,,0.00,Wunderground v.1.15,2013-08-30 02:25:00,
2013-08-29 19:30:00,83.6,58.1,29.86,NW,311,1.0,2.0,42,0.00,,,0.00,Wunderground v.1.15,2013-08-30 02:30:00,
2013-08-29 19:35:00,83.3,57.1,29.86,NW,311,0.0,0.0,41,0.00,,,0.00,Wunderground v.1.15,2013-08-30 02:35:00,
2013-08-29 19:40:00,83.0,57.5,29.86,NW,311,0.0,0.0,42,0.00,,,0.00,Wunderground v.1.15,2013-08-30 02:40:00,
2013-08-29 19:45:00,82.5,60.2,29.87,NW,315,0.0,-999.0,47,0.00,,,0.00,Wunderground v.1.15,2013-08-30 02:45:00,
2013-08-29 19:50:00,82.5,60.8,29.87,NW,311,0.0,0.0,48,0.00,,,0.00,Wunderground v.1.15,2013-08-30 02:50:00,
2013-08-29 19:55:00,82.4,62.5,29.88,NW,311,0.0,0.0,51,0.00,,,0.00,Wunderground v.1.15,2013-08-30 02:55:00,
2013-08-29 20:00:00,82.1,62.7,29.88,South,179,0.0,0.0,52,0.00,,,0.00,Wunderground v.1.15,2013-08-30 03:00:00,
2013-08-29 20:05:00,81.5,62.7,29.88,South,179,1.0,1.0,53,0.00,,,0.00,Wunderground v.1.15,2013-08-30 03:05:00,
2013-08-29 20:10:00,80.9,63.2,29.88,South,179,1.0,1.0,55,0.00,,,0.00,Wunderground v.1.15,2013-08-30 03:10:00,
2013-08-29 20:15:00,79.9,62.8,29.88,South,180,0.0,-999.0,56,0.00,,,0.00,Wunderground v.1.15,2013-08-30 03:15:00,
2013-08-29 20:20:00,79.9,62.8,29.88,South,179,0.0,0.0,56,0.00,,,0.00,Wunderground v.1.15,2013-08-30 03:20:00,
2013-08-29 20:25:00,79.3,62.7,29.89,South,179,0.0,0.0,57,0.00,,,0.00,Wunderground v.1.15,2013-08-30 03:25:00,
2013-08-29 20:30:00,79.0,62.5,29.88,South,179,0.0,0.0,57,0.00,,,0.00,Wunderground v.1.15,2013-08-30 03:30:00,
2013-08-29 20:35:00,78.8,62.8,29.88,South,179,0.0,0.0,58,0.00,,,0.00,Wunderground v.1.15,2013-08-30 03:35:00,
2013-08-29 20:40:00,78.5,62.5,29.89,South,179,0.0,0.0,58,0.00,,,0.00,Wunderground v.1.15,2013-08-30 03:40:00,
2013-08-29 20:45:00,78.4,62.9,29.89,South,179,0.0,0.0,59,0.00,,,0.00,Wunderground v.1.15,2013-08-30 03:45:00,
2013-08-29 20:50:00,78.3,63.7,29.89,South,179,0.0,0.0,61,0.00,,,0.00,Wunderground v.1.15,2013-08-30 03:50:00,
2013-08-29 20:55:00,78.2,64.6,29.89,South,179,0.0,0.0,63,0.00,,,0.00,Wunderground v.1.15,2013-08-30 03:55:00,
2013-08-29 21:00:00,78.0,64.4,29.89,South,179,0.0,0.0,63,0.00,,,0.00,Wunderground v.1.15,2013-08-30 04:00:00,
2013-08-29 21:05:00,77.5,64.4,29.89,N/A,-737280,0.0,-999.0,64,0.00,,,0.00,Wunderground v.1.15,2013-08-30 04:05:00,
2013-08-29 21:10:00,77.5,64.4,29.89,South,179,0.0,0.0,64,0.00,,,0.00,Wunderground v.1.15,2013-08-30 04:10:00,
2013-08-29 21:15:00,77.1,64.4,29.89,N/A,-737280,0.0,-999.0,65,0.00,,,0.00,Wunderground v.1.15,2013-08-30 04:15:00,
2013-08-29 21:20:00,77.1,64.4,29.89,South,179,0.0,0.0,65,0.00,,,0.00,Wunderground v.1.15,2013-08-30 04:20:00,
2013-08-29 21:25:00,76.9,64.7,29.89,South,179,0.0,0.0,66,0.00,,,0.00,Wunderground v.1.15,2013-08-30 04:25:00,
2013-08-29 21:30:00,76.8,64.6,29.89,N/A,-737280,0.0,-999.0,66,0.00,,,0.00,Wunderground v.1.15,2013-08-30 04:30:00,
2013-08-29 21:35:00,76.5,64.7,29.89,N/A,-737280,0.0,-999.0,67,0.00,,,0.00,Wunderground v.1.15,2013-08-30 04:35:00,
2013-08-29 21:40:00,76.5,64.7,29.89,N/A,-737280,0.0,-999.0,67,0.00,,,0.00,Wunderground v.1.15,2013-08-30 04:40:00,
2013-08-29 21:45:00,76.3,65.4,29.89,N/A,-737280,0.0,-999.0,69,0.00,,,0.00,Wunderground v.1.15,2013-08-30 04:45:00,
2013-08-29 21:50:00,76.3,65.4,29.89,N/A,-737280,0.0,-999.0,69,0.00,,,0.00,Wunderground v.1.15,2013-08-30 04:50:00,
2013-08-29 21:55:00,75.8,64.9,29.89,N/A,-737280,0.0,-999.0,69,0.00,,,0.00,Wunderground v.1.15,2013-08-30 04:55:00,
2013-08-29 22:00:00,75.8,64.9,29.89,N/A,-737280,0.0,-999.0,69,0.00,,,0.00,Wunderground v.1.15,2013-08-30 05:00:00,
2013-08-29 22:05:00,75.7,65.2,29.89,N/A,-737280,0.0,-999.0,70,0.00,,,0.00,Wunderground v.1.15,2013-08-30 05:05:00,
2013-08-29 22:10:00,75.7,65.2,29.89,N/A,-737280,0.0,-999.0,70,0.00,,,0.00,Wunderground v.1.15,2013-08-30 05:10:00,
2013-08-29 22:15:00,75.5,65.0,29.90,N/A,-737280,0.0,-999.0,70,0.00,,,0.00,Wunderground v.1.15,2013-08-30 05:15:00,
2013-08-29 22:20:00,75.5,65.0,29.90,N/A,-737280,0.0,-999.0,70,0.00,,,0.00,Wunderground v.1.15,2013-08-30 05:20:00,
2013-08-29 22:25:00,75.2,64.3,29.90,South,179,0.0,0.0,69,0.00,,,0.00,Wunderground v.1.15,2013-08-30 05:25:00,
2013-08-29 22:30:00,75.0,64.1,29.90,SSW,192,0.0,0.0,69,0.00,,,0.00,Wunderground v.1.15,2013-08-30 05:30:00,
2013-08-29 22:35:00,75.1,62.1,29.90,NW,315,0.0,-999.0,64,0.00,,,0.00,Wunderground v.1.15,2013-08-30 05:35:00,
2013-08-29 22:40:00,75.1,62.1,29.90,NW,321,0.0,0.0,64,0.00,,,0.00,Wunderground v.1.15,2013-08-30 05:40:00,
2013-08-29 22:45:00,75.6,62.1,29.90,WNW,295,1.0,1.0,63,0.00,,,0.00,Wunderground v.1.15,2013-08-30 05:45:00,
2013-08-29 22:50:00,75.9,61.9,29.90,WNW,295,1.0,1.0,62,0.00,,,0.00,Wunderground v.1.15,2013-08-30 05:50:00,
2013-08-29 22:55:00,76.0,62.0,29.90,WNW,295,0.0,0.0,62,0.00,,,0.00,Wunderground v.1.15,2013-08-30 05:55:00,
2013-08-29 23:00:00,76.0,62.5,29.90,WNW,295,0.0,0.0,63,0.00,,,0.00,Wunderground v.1.15,2013-08-30 06:00:00,
2013-08-29 23:05:00,75.9,62.4,29.90,WNW,295,0.0,0.0,63,0.00,,,0.00,Wunderground v.1.15,2013-08-30 06:05:00,
2013-08-29 23:10:00,75.8,62.3,29.90,WNW,295,0.0,0.0,63,0.00,,,0.00,Wunderground v.1.15,2013-08-30 06:10:00,
2013-08-29 23:15:00,75.7,62.2,29.91,N/A,-737280,0.0,-999.0,63,0.00,,,0.00,Wunderground v.1.15,2013-08-30 06:15:00,
2013-08-29 23:16:00,75.7,62.2,29.91,WNW,295,0.0,0.0,63,0.00,,,0.00,Wunderground v.1.15,2013-08-30 06:16:00,
2013-08-29 23:20:00,75.6,62.1,29.91,WNW,295,0.0,0.0,63,0.00,,,0.00,Wunderground v.1.15,2013-08-30 06:20:00,
2013-08-29 23:25:00,75.5,63.8,29.91,WNW,295,0.0,0.0,67,0.00,,,0.00,Wunderground v.1.15,2013-08-30 06:25:00,
2013-08-29 23:30:00,75.4,64.1,29.91,WNW,295,0.0,0.0,68,0.00,,,0.00,Wunderground v.1.15,2013-08-30 06:30:00,
2013-08-29 23:35:00,75.3,64.4,29.91,WNW,295,0.0,0.0,69,0.00,,,0.00,Wunderground v.1.15,2013-08-30 06:35:00,
2013-08-29 23:40:00,75.0,64.5,29.91,WNW,295,0.0,0.0,70,0.00,,,0.00,Wunderground v.1.15,2013-08-30 06:40:00,
2013-08-29 23:45:00,74.7,64.7,29.91,WNW,295,0.0,0.0,71,0.00,,,0.00,Wunderground v.1.15,2013-08-30 06:45:00,
2013-08-29 23:50:00,74.5,64.9,29.91,WNW,295,0.0,0.0,72,0.00,,,0.00,Wunderground v.1.15,2013-08-30 06:50:00,
2013-08-29 23:55:00,74.3,64.7,29.91,WNW,295,0.0,0.0,72,0.00,,,0.00,Wunderground v.1.15,2013-08-30 06:55:00,